Arnold, Maryland
Current Conditions -  °F | °C
As of 4:54 PM on Tuesday 21 Oct 2014 (Local Time) from KNAK Reporting Station
Few Clouds Few Clouds  
Wind Chill: 64°   Ceiling: Unl
Heat Index: 64°   Visibility: 10mi
Dew Point: 52°   Wind: 6mph
Humidity: 65%   Direction: 140°SE
Pressure: 29.8"   Gusts: NA
Location:  39.03°N, 76.51°W
Report Text: KNAK 212054Z AUTO 14005KT 10SM FEW120 18/11 A2980 RMK AO2 SLP094 T01780111 56005
Loading
Personal Weather Stations






























Interactive Weather Map
Tropical Storm Tracking
New forecast layout! Learn more

10-Day Weather Forecast

Advertisements
Track Severe Weather on mobile